Terminal Aerodrome Forecast
Issued by NWS

Home | Current Version | Previous Version | Text Only | Print | Product List | Glossary On
Versions: 1 2 3 4 5 6 7 8 9 10 11 12 13 14 15 16 17
000
FTUS43 KTOP 190500
TAFMHK
TAF
KMHK 190520Z 1906/2006 16010KT 6SM FU FEW250
     FM191400 19018G25KT P6SM BKN250
     FM200100 17011KT P6SM BKN250=

USA.gov is the U.S. government's official web portal to all federal, state and local government web resources and services.